createdAt,value
2019-03-08T00:00:45.784Z,0.30
2019-03-08T00:01:45.787Z,0.40
2019-03-08T00:02:45.790Z,0.30
2019-03-08T00:03:45.793Z,0.40
2019-03-08T00:04:45.795Z,0.50
2019-03-08T00:05:45.802Z,0.40
2019-03-08T00:06:45.800Z,0.30
2019-03-08T00:07:45.806Z,0.40
2019-03-08T00:08:45.807Z,0.30
2019-03-08T00:09:45.811Z,0.40
2019-03-08T00:10:45.813Z,0.40
2019-03-08T00:11:45.817Z,0.30
2019-03-08T00:12:45.821Z,0.40
2019-03-08T00:13:45.858Z,0.30
2019-03-08T00:14:45.824Z,0.30
2019-03-08T00:15:45.831Z,0.40
2019-03-08T00:16:45.830Z,0.40
2019-03-08T00:17:45.834Z,0.30
2019-03-08T00:18:45.843Z,0.50
2019-03-08T00:19:45.840Z,0.40
2019-03-08T00:20:45.841Z,0.20
2019-03-08T00:21:45.846Z,0.40
2019-03-08T00:22:45.849Z,0.40
2019-03-08T00:23:45.850Z,0.40
2019-03-08T00:24:45.851Z,0.40
2019-03-08T00:25:45.906Z,0.50
2019-03-08T00:26:45.860Z,0.40
2019-03-08T00:27:45.862Z,0.40
2019-03-08T00:28:45.865Z,0.30
2019-03-08T00:29:45.867Z,0.40
2019-03-08T00:30:45.873Z,0.30
2019-03-08T00:31:45.875Z,0.40
2019-03-08T00:32:45.880Z,0.30
2019-03-08T00:33:45.880Z,0.30
2019-03-08T00:34:45.882Z,0.30
2019-03-08T00:35:45.886Z,0.40
2019-03-08T00:36:45.891Z,0.50
2019-03-08T00:37:45.891Z,0.30
2019-03-08T00:38:45.895Z,0.40
2019-03-08T00:39:45.897Z,0.40
2019-03-08T00:40:45.899Z,0.40
2019-03-08T00:41:45.903Z,0.30
2019-03-08T00:42:45.906Z,0.30
2019-03-08T00:43:45.910Z,0.40
2019-03-08T00:44:45.920Z,0.30
2019-03-08T00:45:45.913Z,0.50
2019-03-08T00:46:45.918Z,0.40
2019-03-08T00:47:45.970Z,0.20
2019-03-08T00:48:45.923Z,0.30
2019-03-08T00:49:45.924Z,0.30
2019-03-08T00:50:45.929Z,0.30
2019-03-08T00:51:45.930Z,0.40
2019-03-08T00:52:45.935Z,0.30
2019-03-08T00:53:45.936Z,0.40
2019-03-08T00:54:45.940Z,0.20
2019-03-08T00:55:45.946Z,0.40
2019-03-08T00:56:45.946Z,0.30
2019-03-08T00:57:45.948Z,0.30
2019-03-08T00:58:45.950Z,0.40
2019-03-08T00:59:46.056Z,0.50
2019-03-08T01:00:45.956Z,0.50
2019-03-08T01:01:45.957Z,0.30
2019-03-08T01:02:46.014Z,0.30
2019-03-08T01:03:45.966Z,0.30
2019-03-08T01:04:45.969Z,0.40
2019-03-08T01:05:45.971Z,0.40
2019-03-08T01:06:45.975Z,0.30
2019-03-08T01:07:45.979Z,0.30
2019-03-08T01:08:45.979Z,0.30
2019-03-08T01:09:45.983Z,0.30
2019-03-08T01:10:45.997Z,0.30
2019-03-08T01:11:45.988Z,0.20
2019-03-08T01:12:45.991Z,0.40
2019-03-08T01:13:45.996Z,0.30
2019-03-08T01:14:45.997Z,0.30
2019-03-08T01:15:46.001Z,0.30
2019-03-08T01:16:46.000Z,0.40
2019-03-08T01:17:46.010Z,0.30
2019-03-08T01:18:46.008Z,0.30
2019-03-08T01:19:46.011Z,0.40
2019-03-08T01:20:46.064Z,0.30
2019-03-08T01:21:46.019Z,0.40
2019-03-08T01:22:46.020Z,0.30
2019-03-08T01:23:46.024Z,0.30
2019-03-08T01:24:46.076Z,0.40
2019-03-08T01:25:46.029Z,0.30
2019-03-08T01:26:46.031Z,0.30
2019-03-08T01:27:46.036Z,0.40
2019-03-08T01:28:46.037Z,0.30
2019-03-08T01:29:46.043Z,0.30
2019-03-08T01:30:46.045Z,0.30
2019-03-08T01:31:46.046Z,0.30
2019-03-08T01:32:46.049Z,0.30
2019-03-08T01:33:46.052Z,0.40
2019-03-08T01:34:46.054Z,0.40
2019-03-08T01:35:46.157Z,0.30
2019-03-08T01:36:46.062Z,0.30
2019-03-08T01:37:46.062Z,0.40
2019-03-08T01:38:46.066Z,0.30
2019-03-08T01:39:46.070Z,0.40
2019-03-08T01:40:46.072Z,0.40
2019-03-08T01:41:46.074Z,0.30
2019-03-08T01:42:46.077Z,0.40
2019-03-08T01:43:46.081Z,0.30
2019-03-08T01:44:46.081Z,0.30
2019-03-08T01:45:46.085Z,0.30
2019-03-08T01:46:46.089Z,0.40
2019-03-08T01:47:46.091Z,0.40
2019-03-08T01:48:46.093Z,0.40
2019-03-08T01:49:46.096Z,0.40
2019-03-08T01:50:46.100Z,0.40
2019-03-08T01:51:46.104Z,0.30
2019-03-08T01:52:46.106Z,0.20
2019-03-08T01:53:46.108Z,0.30
2019-03-08T01:54:46.111Z,0.30
2019-03-08T01:55:46.128Z,0.30
2019-03-08T01:56:46.117Z,0.40
2019-03-08T01:57:46.118Z,0.30
2019-03-08T01:58:46.127Z,0.50
2019-03-08T01:59:46.130Z,0.40
2019-03-08T02:00:46.130Z,0.30
2019-03-08T02:01:46.131Z,0.30
2019-03-08T02:02:46.135Z,0.40
2019-03-08T02:03:46.137Z,0.30
2019-03-08T02:04:46.140Z,0.40
2019-03-08T02:05:46.142Z,0.30
2019-03-08T02:06:46.145Z,0.40
2019-03-08T02:07:46.149Z,0.40
2019-03-08T02:08:46.150Z,0.30
2019-03-08T02:09:46.153Z,0.30
2019-03-08T02:10:46.160Z,0.30
2019-03-08T02:11:46.163Z,0.30
2019-03-08T02:12:46.161Z,0.30
2019-03-08T02:13:46.168Z,0.30
2019-03-08T02:14:46.167Z,0.20
2019-03-08T02:15:46.172Z,0.40
2019-03-08T02:16:46.173Z,0.30
2019-03-08T02:17:46.175Z,0.30
2019-03-08T02:18:46.182Z,0.30
2019-03-08T02:19:46.182Z,0.40
2019-03-08T02:20:46.184Z,0.30
2019-03-08T02:21:46.237Z,0.30
2019-03-08T02:22:46.191Z,0.30
2019-03-08T02:23:46.193Z,0.30
2019-03-08T02:24:46.196Z,0.30
2019-03-08T02:25:46.198Z,0.40
2019-03-08T02:26:46.208Z,0.40
2019-03-08T02:27:46.211Z,0.30
2019-03-08T02:28:46.211Z,0.30
2019-03-08T02:29:46.215Z,0.40
2019-03-08T02:30:46.216Z,0.40
2019-03-08T02:31:46.216Z,0.30
2019-03-08T02:32:46.217Z,0.30
2019-03-08T02:33:46.220Z,0.40
2019-03-08T02:34:46.224Z,0.30
2019-03-08T02:35:46.227Z,0.40
2019-03-08T02:36:46.229Z,0.30
2019-03-08T02:37:46.232Z,0.40
2019-03-08T02:38:46.235Z,0.30
2019-03-08T02:39:46.239Z,0.30
2019-03-08T02:40:46.340Z,0.30
2019-03-08T02:41:46.249Z,0.40
2019-03-08T02:42:46.246Z,0.30
2019-03-08T02:43:46.252Z,0.30
2019-03-08T02:44:46.252Z,0.40
2019-03-08T02:45:46.256Z,0.40
2019-03-08T02:46:46.257Z,0.40
2019-03-08T02:47:46.312Z,0.30
2019-03-08T02:48:46.268Z,0.30
2019-03-08T02:49:46.267Z,0.30
2019-03-08T02:50:46.274Z,0.30
2019-03-08T02:51:46.277Z,0.40
2019-03-08T02:52:46.274Z,0.30
2019-03-08T02:53:46.276Z,0.30
2019-03-08T02:54:46.279Z,0.40
2019-03-08T02:55:46.283Z,0.50
2019-03-08T02:56:46.287Z,0.30
2019-03-08T02:57:46.289Z,0.40
2019-03-08T02:58:46.292Z,0.40
2019-03-08T02:59:46.294Z,0.30
2019-03-08T03:00:46.395Z,0.30
2019-03-08T03:01:46.301Z,0.40
2019-03-08T03:02:46.302Z,0.30
2019-03-08T03:03:46.314Z,0.40
2019-03-08T03:04:46.310Z,0.50
2019-03-08T03:05:46.310Z,0.30
2019-03-08T03:06:46.314Z,0.20
2019-03-08T03:07:46.317Z,0.30
2019-03-08T03:08:46.318Z,0.40
2019-03-08T03:09:46.322Z,0.40
2019-03-08T03:10:46.349Z,0.50
2019-03-08T03:11:46.330Z,0.40
2019-03-08T03:12:46.329Z,0.20
2019-03-08T03:13:46.334Z,0.40
2019-03-08T03:14:46.335Z,0.40
2019-03-08T03:15:46.338Z,0.30
2019-03-08T03:16:46.340Z,0.30
2019-03-08T03:17:46.344Z,0.30
2019-03-08T03:18:46.346Z,0.40
2019-03-08T03:19:46.350Z,0.30
2019-03-08T03:20:46.350Z,0.30
2019-03-08T03:21:46.359Z,0.40
2019-03-08T03:22:46.358Z,0.30
2019-03-08T03:23:46.360Z,0.40
2019-03-08T03:24:46.363Z,0.40
2019-03-08T03:25:46.366Z,0.30
2019-03-08T03:26:46.369Z,0.50
2019-03-08T03:27:46.373Z,0.30
2019-03-08T03:28:46.374Z,0.30
2019-03-08T03:29:46.427Z,0.30
2019-03-08T03:30:46.391Z,0.30
2019-03-08T03:31:46.389Z,0.30
2019-03-08T03:32:46.394Z,0.30
2019-03-08T03:33:46.390Z,0.30
2019-03-08T03:34:46.391Z,0.30
2019-03-08T03:35:46.396Z,0.30
2019-03-08T03:36:46.415Z,0.30
2019-03-08T03:37:46.398Z,0.40
2019-03-08T03:38:46.403Z,0.40
2019-03-08T03:39:46.405Z,0.20
2019-03-08T03:40:46.410Z,0.30
2019-03-08T03:41:46.410Z,0.30
2019-03-08T03:42:46.415Z,0.30
2019-03-08T03:43:46.466Z,0.30
2019-03-08T03:44:46.421Z,0.20
2019-03-08T03:45:46.421Z,0.30
2019-03-08T03:46:46.425Z,0.40
2019-03-08T03:47:46.489Z,0.30
2019-03-08T03:48:46.430Z,0.30
2019-03-08T03:49:46.434Z,0.40
2019-03-08T03:50:46.436Z,0.40
2019-03-08T03:51:46.439Z,0.40
2019-03-08T03:52:46.442Z,0.30
2019-03-08T03:53:46.444Z,0.30
2019-03-08T03:54:46.448Z,0.30
2019-03-08T03:55:46.450Z,0.40
2019-03-08T03:56:46.452Z,0.40
2019-03-08T03:57:46.455Z,0.40
2019-03-08T03:58:46.508Z,0.40
2019-03-08T03:59:46.470Z,0.30
2019-03-08T04:00:46.519Z,0.30
2019-03-08T04:01:46.467Z,0.30
2019-03-08T04:02:46.469Z,0.30
2019-03-08T04:03:46.475Z,0.30
2019-03-08T04:04:46.475Z,0.30
2019-03-08T04:05:46.480Z,0.40
2019-03-08T04:06:46.481Z,0.30
2019-03-08T04:07:46.486Z,0.20
2019-03-08T04:08:46.635Z,0.40
2019-03-08T04:09:46.489Z,0.30
2019-03-08T04:10:46.494Z,0.40
2019-03-08T04:11:46.497Z,0.30
2019-03-08T04:12:46.496Z,0.30
2019-03-08T04:13:46.699Z,0.40
2019-03-08T04:14:46.502Z,0.40
2019-03-08T04:15:46.508Z,0.30
2019-03-08T04:16:46.507Z,0.30
2019-03-08T04:17:46.511Z,0.30
2019-03-08T04:18:46.513Z,0.40
2019-03-08T04:19:46.516Z,0.50
2019-03-08T04:20:46.521Z,0.20
2019-03-08T04:21:46.572Z,0.40
2019-03-08T04:22:46.528Z,0.40
2019-03-08T04:23:46.528Z,0.30
2019-03-08T04:24:46.833Z,0.30
2019-03-08T04:25:46.533Z,0.20
2019-03-08T04:26:46.537Z,0.30
2019-03-08T04:27:46.542Z,0.30
2019-03-08T04:28:46.542Z,0.30
2019-03-08T04:29:46.543Z,0.20
2019-03-08T04:30:46.547Z,0.30
2019-03-08T04:31:46.548Z,0.20
2019-03-08T04:32:46.554Z,0.30
2019-03-08T04:33:46.555Z,0.40
2019-03-08T04:34:46.658Z,0.40
2019-03-08T04:35:46.561Z,0.30
2019-03-08T04:36:46.563Z,0.30
2019-03-08T04:37:46.568Z,0.20
2019-03-08T04:38:46.569Z,0.30
2019-03-08T04:39:46.573Z,0.30
2019-03-08T04:40:46.574Z,0.30
2019-03-08T04:41:46.578Z,0.30
2019-03-08T04:42:46.583Z,0.30
2019-03-08T04:43:46.583Z,0.20
2019-03-08T04:44:46.585Z,0.20
2019-03-08T04:45:46.589Z,0.30
2019-03-08T04:46:46.591Z,0.40
2019-03-08T04:47:46.596Z,0.30
2019-03-08T04:48:46.597Z,0.40
2019-03-08T04:49:46.599Z,0.20
2019-03-08T04:50:46.655Z,0.30
2019-03-08T04:51:46.604Z,0.30
2019-03-08T04:52:46.606Z,0.30
2019-03-08T04:53:46.617Z,0.20
2019-03-08T04:54:46.614Z,0.30
2019-03-08T04:55:46.617Z,0.20
2019-03-08T04:56:46.622Z,0.40
2019-03-08T04:57:46.621Z,0.30
2019-03-08T04:58:46.725Z,0.30
2019-03-08T04:59:46.628Z,0.30
2019-03-08T05:00:46.630Z,0.30
2019-03-08T05:01:46.633Z,0.30
2019-03-08T05:02:46.635Z,0.20
2019-03-08T05:03:46.639Z,0.20
2019-03-08T05:04:46.699Z,0.20
2019-03-08T05:05:46.699Z,0.30
2019-03-08T05:06:46.650Z,0.20
2019-03-08T05:07:46.650Z,0.20
2019-03-08T05:08:46.668Z,0.20
2019-03-08T05:09:46.655Z,0.20
2019-03-08T05:10:46.659Z,0.30
2019-03-08T05:11:46.661Z,0.20
2019-03-08T05:12:46.667Z,0.30
2019-03-08T05:13:46.666Z,0.30
2019-03-08T05:14:46.771Z,0.20
2019-03-08T05:15:46.673Z,0.20
2019-03-08T05:16:46.675Z,0.30
2019-03-08T05:17:46.678Z,0.20
2019-03-08T05:18:46.680Z,0.20
2019-03-08T05:19:46.683Z,0.30
2019-03-08T05:20:46.687Z,0.40
2019-03-08T05:21:46.690Z,0.20
2019-03-08T05:22:46.691Z,0.20
2019-03-08T05:23:46.696Z,0.20
2019-03-08T05:24:46.698Z,0.20
2019-03-08T05:25:46.700Z,0.20
2019-03-08T05:26:46.710Z,0.20
2019-03-08T05:27:46.715Z,0.30
2019-03-08T05:28:46.713Z,0.20
2019-03-08T05:29:46.714Z,0.30
2019-03-08T05:30:46.712Z,0.30
2019-03-08T05:31:46.719Z,0.20
2019-03-08T05:32:46.719Z,0.20
2019-03-08T05:33:46.723Z,0.30
2019-03-08T05:34:46.731Z,0.30
2019-03-08T05:35:46.729Z,0.20
2019-03-08T05:36:46.786Z,0.20
2019-03-08T05:37:46.894Z,0.20
2019-03-08T05:38:46.736Z,0.30
2019-03-08T05:39:46.789Z,0.30
2019-03-08T05:40:46.741Z,0.30
2019-03-08T05:41:46.746Z,0.30
2019-03-08T05:42:46.747Z,0.30
2019-03-08T05:43:46.750Z,0.20
2019-03-08T05:44:46.802Z,0.30
2019-03-08T05:45:46.756Z,0.30
2019-03-08T05:46:46.759Z,0.20
2019-03-08T05:47:46.763Z,0.20
2019-03-08T05:48:46.765Z,0.30
2019-03-08T05:49:46.767Z,0.20
2019-03-08T05:50:46.771Z,0.20
2019-03-08T05:51:46.823Z,0.30
2019-03-08T05:52:46.775Z,0.70
2019-03-08T05:53:46.780Z,0.40
2019-03-08T05:54:46.782Z,0.50
2019-03-08T05:55:46.792Z,0.50
2019-03-08T05:56:46.795Z,0.20
2019-03-08T05:57:46.790Z,0.30
2019-03-08T05:58:46.794Z,0.50
2019-03-08T05:59:46.796Z,0.50
2019-03-08T06:00:46.797Z,0.40
2019-03-08T06:01:46.803Z,0.60
2019-03-08T06:02:46.810Z,0.60
2019-03-08T06:03:46.808Z,0.70
2019-03-08T06:04:46.862Z,0.80
2019-03-08T06:05:46.815Z,0.80
2019-03-08T06:06:46.819Z,1.30
2019-03-08T06:07:46.820Z,1.00
2019-03-08T06:08:46.846Z,1.40
2019-03-08T06:09:46.826Z,1.20
2019-03-08T06:10:46.829Z,1.20
2019-03-08T06:11:46.835Z,1.10
2019-03-08T06:12:46.835Z,1.60
2019-03-08T06:13:46.841Z,1.60
2019-03-08T06:14:46.842Z,1.60
2019-03-08T06:15:46.845Z,2.20
2019-03-08T06:16:46.847Z,2.10
2019-03-08T06:17:46.849Z,2.10
2019-03-08T06:18:46.858Z,1.90
2019-03-08T06:19:46.957Z,1.70
2019-03-08T06:20:46.863Z,2.30
2019-03-08T06:21:46.913Z,1.70
2019-03-08T06:22:46.867Z,1.80
2019-03-08T06:23:46.870Z,1.90
2019-03-08T06:24:46.872Z,1.90
2019-03-08T06:25:46.875Z,1.80
2019-03-08T06:26:46.883Z,2.10
2019-03-08T06:27:46.884Z,2.60
2019-03-08T06:28:46.885Z,1.80
2019-03-08T06:29:46.986Z,1.50
2019-03-08T06:30:46.891Z,1.20
2019-03-08T06:31:46.894Z,1.50
2019-03-08T06:32:46.897Z,1.70
2019-03-08T06:33:47.001Z,1.30
2019-03-08T06:34:46.953Z,1.00
2019-03-08T06:35:46.907Z,1.10
2019-03-08T06:36:46.913Z,0.90
2019-03-08T06:37:46.962Z,1.10
2019-03-08T06:38:46.915Z,1.00
2019-03-08T06:39:46.921Z,0.70
2019-03-08T06:40:46.923Z,0.90
2019-03-08T06:41:46.927Z,0.60
2019-03-08T06:42:46.930Z,0.70
2019-03-08T06:43:46.932Z,0.70
2019-03-08T06:44:47.085Z,0.60
2019-03-08T06:45:46.938Z,0.70
2019-03-08T06:46:46.943Z,0.60
2019-03-08T06:47:46.946Z,0.80
2019-03-08T06:48:47.100Z,0.60
2019-03-08T06:49:47.203Z,0.40
2019-03-08T06:50:46.956Z,0.50
2019-03-08T06:51:46.958Z,0.40
2019-03-08T06:52:47.060Z,0.60
2019-03-08T06:53:46.968Z,0.50
2019-03-08T06:54:46.971Z,0.50
2019-03-08T06:55:46.971Z,0.50
2019-03-08T06:56:46.974Z,0.40
2019-03-08T06:57:46.979Z,0.60
2019-03-08T06:58:46.982Z,0.60
2019-03-08T06:59:46.984Z,0.70
2019-03-08T07:00:47.288Z,0.80
2019-03-08T07:01:47.590Z,0.70
2019-03-08T07:02:47.395Z,0.70
2019-03-08T07:03:47.351Z,0.70
2019-03-08T07:04:47.202Z,1.00
2019-03-08T07:05:47.103Z,0.90
2019-03-08T07:06:47.004Z,0.80
2019-03-08T07:07:47.260Z,0.80
2019-03-08T07:08:47.013Z,1.00
2019-03-08T07:09:47.167Z,0.70
2019-03-08T07:10:47.020Z,0.70
2019-03-08T07:11:47.022Z,0.60
2019-03-08T07:12:47.088Z,0.40
2019-03-08T07:13:47.028Z,0.40
2019-03-08T07:14:47.032Z,0.60
2019-03-08T07:15:47.036Z,0.90
2019-03-08T07:16:47.039Z,0.50
2019-03-08T07:17:47.056Z,0.60
2019-03-08T07:18:47.044Z,0.50
2019-03-08T07:19:47.060Z,0.50
2019-03-08T07:20:47.060Z,0.40
2019-03-08T07:21:47.107Z,0.50
2019-03-08T07:22:47.059Z,0.50
2019-03-08T07:23:47.166Z,0.40
2019-03-08T07:24:47.071Z,0.40
2019-03-08T07:25:51.441Z,0.40
2019-03-08T07:26:47.119Z,0.40
2019-03-08T07:27:47.077Z,0.40
2019-03-08T07:28:47.127Z,0.40
2019-03-08T07:29:47.081Z,0.50
2019-03-08T07:30:47.084Z,0.30
2019-03-08T07:31:47.093Z,0.40
2019-03-08T07:32:47.090Z,0.30
2019-03-08T07:33:53.164Z,0.30
2019-03-08T07:34:47.098Z,0.20
2019-03-08T07:35:47.101Z,0.30
2019-03-08T07:36:47.104Z,0.50
2019-03-08T07:37:47.108Z,0.50
2019-03-08T07:38:47.110Z,0.40
2019-03-08T07:39:47.114Z,0.20
2019-03-08T07:40:47.165Z,0.40
2019-03-08T07:41:47.220Z,0.40
2019-03-08T07:42:47.122Z,0.30
2019-03-08T07:43:47.128Z,0.40
2019-03-08T07:44:47.137Z,0.30
2019-03-08T07:45:47.132Z,0.60
2019-03-08T07:46:47.238Z,0.30
2019-03-08T07:47:47.140Z,0.30
2019-03-08T07:48:47.195Z,0.60
2019-03-08T07:49:47.146Z,0.50
2019-03-08T07:50:47.300Z,0.40
2019-03-08T07:51:47.155Z,0.20
2019-03-08T07:52:47.156Z,0.30
2019-03-08T07:53:47.166Z,0.30
2019-03-08T07:54:52.969Z,0.30
2019-03-08T07:55:47.169Z,0.20
2019-03-08T07:56:47.168Z,0.10
2019-03-08T07:57:47.176Z,0.40
2019-03-08T07:58:47.180Z,0.20
2019-03-08T07:59:53.801Z,0.30
2019-03-08T08:00:47.182Z,0.40
2019-03-08T08:01:47.386Z,0.30
2019-03-08T08:02:47.293Z,0.30
2019-03-08T08:03:47.542Z,0.30
2019-03-08T08:04:47.197Z,0.20
2019-03-08T08:05:47.203Z,0.30
2019-03-08T08:06:47.201Z,0.30
2019-03-08T08:07:47.207Z,0.50
2019-03-08T08:08:51.730Z,0.30
2019-03-08T08:09:47.370Z,0.40
2019-03-08T08:10:47.217Z,0.30
2019-03-08T08:11:47.369Z,0.20
2019-03-08T08:12:47.222Z,0.30
2019-03-08T08:13:47.275Z,0.30
2019-03-08T08:14:47.281Z,0.30
2019-03-08T08:15:47.433Z,0.30
2019-03-08T08:16:47.338Z,0.20
2019-03-08T08:17:47.293Z,0.30
2019-03-08T08:18:47.343Z,0.30
2019-03-08T08:19:47.398Z,0.70
2019-03-08T08:20:47.348Z,0.30
2019-03-08T08:21:47.451Z,0.30
2019-03-08T08:22:47.312Z,0.30
2019-03-08T08:23:47.363Z,0.20
2019-03-08T08:24:47.264Z,0.10
2019-03-08T08:25:47.266Z,0.20
2019-03-08T08:26:47.372Z,0.20
2019-03-08T08:27:47.278Z,0.50
2019-03-08T08:28:50.072Z,0.20
2019-03-08T08:29:47.427Z,0.20
2019-03-08T08:30:47.283Z,0.30
2019-03-08T08:31:47.350Z,0.10
2019-03-08T08:32:47.390Z,0.10
2019-03-08T08:33:47.443Z,0.20
2019-03-08T08:34:47.348Z,0.50
2019-03-08T08:35:47.350Z,0.20
2019-03-08T08:36:47.302Z,0.20
2019-03-08T08:37:47.406Z,0.50
2019-03-08T08:38:47.308Z,0.20
2019-03-08T08:39:47.413Z,0.30
2019-03-08T08:40:47.517Z,0.20
2019-03-08T08:41:47.370Z,0.40
2019-03-08T08:42:47.375Z,0.30
2019-03-08T08:43:47.378Z,0.30
2019-03-08T08:44:47.529Z,0.20
2019-03-08T08:45:47.335Z,0.30
2019-03-08T08:46:47.337Z,0.20
2019-03-08T08:47:47.340Z,0.30
2019-03-08T08:48:47.393Z,0.20
2019-03-08T08:49:54.315Z,0.40
2019-03-08T08:50:47.449Z,0.40
2019-03-08T08:51:47.452Z,0.50
2019-03-08T08:52:47.407Z,0.40
2019-03-08T08:53:47.360Z,0.30
2019-03-08T08:54:47.364Z,0.40
2019-03-08T08:55:47.366Z,0.40
2019-03-08T08:56:47.371Z,0.30
2019-03-08T08:57:47.378Z,0.40
2019-03-08T08:58:47.375Z,0.40
2019-03-08T08:59:47.580Z,0.70
2019-03-08T09:00:47.535Z,0.40
2019-03-08T09:01:47.636Z,0.60
2019-03-08T09:02:47.791Z,0.30
2019-03-08T09:03:47.644Z,0.30
2019-03-08T09:04:47.446Z,0.30
2019-03-08T09:05:47.451Z,0.40
2019-03-08T09:06:47.406Z,0.40
2019-03-08T09:07:47.458Z,0.30
2019-03-08T09:08:47.520Z,0.40
2019-03-08T09:09:47.464Z,0.30
2019-03-08T09:10:47.418Z,0.40
2019-03-08T09:11:52.508Z,0.30
2019-03-08T09:12:47.524Z,0.20
2019-03-08T09:13:47.431Z,0.30
2019-03-08T09:14:47.431Z,0.50
2019-03-08T09:15:47.484Z,0.30
2019-03-08T09:16:47.506Z,0.30
2019-03-08T09:17:47.492Z,0.50
2019-03-08T09:18:47.504Z,0.20
2019-03-08T09:19:47.499Z,0.50
2019-03-08T09:20:47.551Z,0.20
2019-03-08T09:21:47.654Z,0.30
2019-03-08T09:22:47.558Z,0.30
2019-03-08T09:23:47.463Z,0.20
2019-03-08T09:24:47.663Z,0.30
2019-03-08T09:25:47.467Z,0.50
2019-03-08T09:26:47.471Z,0.30
2019-03-08T09:27:47.474Z,0.20
2019-03-08T09:28:47.528Z,0.30
2019-03-08T09:29:47.481Z,0.20
2019-03-08T09:30:47.635Z,0.20
2019-03-08T09:31:47.687Z,0.30
2019-03-08T09:32:47.490Z,0.30
2019-03-08T09:33:47.547Z,0.30
2019-03-08T09:34:47.647Z,0.30
2019-03-08T09:35:47.503Z,0.30
2019-03-08T09:36:47.557Z,0.40
2019-03-08T09:37:47.511Z,0.30
2019-03-08T09:38:47.528Z,0.30
2019-03-08T09:39:47.566Z,0.20
2019-03-08T09:40:47.521Z,0.20
2019-03-08T09:41:47.623Z,0.20
2019-03-08T09:42:47.578Z,0.20
2019-03-08T09:43:47.526Z,0.30
2019-03-08T09:44:47.680Z,0.20
2019-03-08T09:45:47.534Z,0.20
2019-03-08T09:46:49.236Z,0.20
2019-03-08T09:47:47.541Z,0.20
2019-03-08T09:48:48.950Z,0.20
2019-03-08T09:49:47.649Z,0.10
2019-03-08T09:50:47.551Z,0.20
2019-03-08T09:51:47.706Z,0.30
2019-03-08T09:52:47.609Z,0.20
2019-03-08T09:53:47.561Z,0.30
2019-03-08T09:54:47.865Z,0.20
2019-03-08T09:55:47.626Z,0.20
2019-03-08T09:56:47.579Z,0.20
2019-03-08T09:57:47.626Z,0.20
2019-03-08T09:58:47.592Z,0.20
2019-03-08T09:59:47.588Z,0.30
2019-03-08T10:00:47.974Z,0.30
2019-03-08T10:01:47.838Z,0.30
2019-03-08T10:02:47.590Z,0.30
2019-03-08T10:03:47.703Z,0.20
2019-03-08T10:04:47.947Z,0.20
2019-03-08T10:05:47.605Z,0.20
2019-03-08T10:06:47.774Z,0.30
2019-03-08T10:07:47.659Z,0.40
2019-03-08T10:08:47.613Z,0.30
2019-03-08T10:09:47.615Z,0.30
2019-03-08T10:10:47.777Z,0.30
2019-03-08T10:11:47.622Z,0.30
2019-03-08T10:12:47.775Z,0.30
2019-03-08T10:13:47.830Z,0.20
2019-03-08T10:14:47.731Z,0.30
2019-03-08T10:15:47.685Z,0.30
2019-03-08T10:16:47.650Z,0.10
2019-03-08T10:17:47.653Z,0.30
2019-03-08T10:18:47.724Z,0.30
2019-03-08T10:19:47.809Z,0.30
2019-03-08T10:20:47.652Z,0.30
2019-03-08T10:21:47.906Z,0.20
2019-03-08T10:22:48.317Z,0.30
2019-03-08T10:23:47.814Z,0.20
2019-03-08T10:24:47.966Z,0.20
2019-03-08T10:25:47.671Z,0.30
2019-03-08T10:26:47.773Z,0.20
2019-03-08T10:27:47.926Z,0.30
2019-03-08T10:28:47.680Z,0.30
2019-03-08T10:29:47.683Z,0.40
2019-03-08T10:30:48.035Z,0.30
2019-03-08T10:31:47.740Z,0.30
2019-03-08T10:32:47.743Z,0.30
2019-03-08T10:33:48.298Z,0.20
2019-03-08T10:34:47.848Z,0.20
2019-03-08T10:35:47.713Z,0.50
2019-03-08T10:36:47.754Z,0.20
2019-03-08T10:37:47.710Z,0.30
2019-03-08T10:38:47.716Z,0.30
2019-03-08T10:39:47.719Z,0.20
2019-03-08T10:40:47.722Z,0.50
2019-03-08T10:41:47.724Z,0.40
2019-03-08T10:42:47.732Z,0.20
2019-03-08T10:43:47.831Z,0.30
2019-03-08T10:44:47.733Z,0.30
2019-03-08T10:45:47.888Z,0.30
2019-03-08T10:46:47.741Z,0.30
2019-03-08T10:47:55.827Z,0.40
2019-03-08T10:48:47.865Z,0.20
2019-03-08T10:49:55.124Z,0.40
2019-03-08T10:50:47.754Z,0.30
2019-03-08T10:51:47.806Z,0.40
2019-03-08T10:52:47.911Z,0.40
2019-03-08T10:53:47.765Z,0.30
2019-03-08T10:54:47.771Z,0.60
2019-03-08T10:55:47.772Z,0.30
2019-03-08T10:56:47.774Z,0.30
2019-03-08T10:57:47.879Z,0.40
2019-03-08T10:58:47.832Z,0.20
2019-03-08T10:59:47.985Z,0.30
2019-03-08T11:00:47.937Z,0.30
2019-03-08T11:01:48.291Z,0.30
2019-03-08T11:02:48.323Z,0.30
2019-03-08T11:03:48.349Z,0.20
2019-03-08T11:04:47.800Z,0.20
2019-03-08T11:05:47.803Z,0.20
2019-03-08T11:06:47.861Z,0.30
2019-03-08T11:07:47.813Z,0.30
2019-03-08T11:08:47.864Z,0.50
2019-03-08T11:09:47.968Z,0.20
2019-03-08T11:10:48.523Z,0.30
2019-03-08T11:11:48.275Z,0.20
2019-03-08T11:12:47.828Z,0.20
2019-03-08T11:13:47.831Z,0.30
2019-03-08T11:14:47.834Z,0.30
2019-03-08T11:15:48.043Z,0.30
2019-03-08T11:16:47.841Z,0.30
2019-03-08T11:17:51.046Z,0.20
2019-03-08T11:18:47.850Z,0.30
2019-03-08T11:19:48.253Z,0.40
2019-03-08T11:20:47.855Z,0.30
2019-03-08T11:21:47.859Z,0.20
2019-03-08T11:22:47.863Z,0.30
2019-03-08T11:23:47.867Z,0.40
2019-03-08T11:24:47.867Z,0.30
2019-03-08T11:25:49.081Z,0.50
2019-03-08T11:26:47.878Z,0.30
2019-03-08T11:27:47.880Z,0.40
2019-03-08T11:28:47.882Z,0.30
2019-03-08T11:29:47.887Z,0.20
2019-03-08T11:30:54.015Z,0.40
2019-03-08T11:31:47.948Z,0.40
2019-03-08T11:32:47.996Z,0.30
2019-03-08T11:33:47.899Z,0.30
2019-03-08T11:34:52.078Z,0.30
2019-03-08T11:35:47.907Z,0.30
2019-03-08T11:36:47.911Z,0.30
2019-03-08T11:37:47.914Z,0.40
2019-03-08T11:38:47.917Z,0.30
2019-03-08T11:39:47.920Z,0.20
2019-03-08T11:40:47.925Z,0.30
2019-03-08T11:41:48.127Z,0.30
2019-03-08T11:42:47.931Z,0.40
2019-03-08T11:43:47.934Z,0.50
2019-03-08T11:44:47.939Z,0.20
2019-03-08T11:45:47.942Z,0.30
2019-03-08T11:46:47.943Z,0.20
2019-03-08T11:47:48.015Z,0.40
2019-03-08T11:48:47.951Z,0.30
2019-03-08T11:49:48.405Z,0.40
2019-03-08T11:50:47.959Z,0.30
2019-03-08T11:51:48.012Z,0.30
2019-03-08T11:52:47.964Z,0.30
2019-03-08T11:53:55.920Z,0.20
2019-03-08T11:54:47.973Z,0.40
2019-03-08T11:55:47.976Z,0.20
2019-03-08T11:56:55.854Z,0.30
2019-03-08T11:57:47.981Z,0.20
2019-03-08T11:58:47.985Z,0.40
2019-03-08T11:59:47.989Z,0.40
2019-03-08T12:00:48.091Z,0.20
2019-03-08T12:01:47.996Z,0.30
2019-03-08T12:02:48.049Z,0.30
2019-03-08T12:03:48.000Z,0.30
2019-03-08T12:04:48.255Z,0.30
2019-03-08T12:05:49.882Z,0.30
2019-03-08T12:06:48.015Z,0.30
2019-03-08T12:07:48.018Z,0.30
2019-03-08T12:08:48.019Z,0.30
2019-03-08T12:09:48.027Z,0.20
2019-03-08T12:10:48.029Z,0.40
2019-03-08T12:11:48.030Z,0.30
2019-03-08T12:12:48.036Z,0.30
2019-03-08T12:13:48.189Z,0.30
2019-03-08T12:14:48.239Z,0.20
2019-03-08T12:15:48.048Z,0.20
2019-03-08T12:16:48.148Z,0.20
2019-03-08T12:17:48.051Z,0.30
2019-03-08T12:18:48.102Z,0.20
2019-03-08T12:19:48.360Z,0.50
2019-03-08T12:20:48.066Z,0.20
2019-03-08T12:21:48.065Z,0.20
2019-03-08T12:22:48.068Z,0.30
2019-03-08T12:23:48.074Z,0.20
2019-03-08T12:24:48.074Z,0.20
2019-03-08T12:25:48.380Z,0.20
2019-03-08T12:26:48.182Z,0.30
2019-03-08T12:27:48.184Z,0.50
2019-03-08T12:28:48.202Z,0.20
2019-03-08T12:29:48.342Z,0.20
2019-03-08T12:30:48.197Z,0.20
2019-03-08T12:31:48.153Z,0.40
2019-03-08T12:32:48.104Z,0.20
2019-03-08T12:33:48.104Z,0.50
2019-03-08T12:34:48.111Z,0.20
2019-03-08T12:35:48.116Z,0.20
2019-03-08T12:36:48.117Z,0.30
2019-03-08T12:37:48.220Z,0.20
2019-03-08T12:38:48.123Z,0.60
2019-03-08T12:39:48.429Z,0.20
2019-03-08T12:40:48.230Z,0.60
2019-03-08T12:41:48.133Z,0.30
2019-03-08T12:42:48.137Z,0.20
2019-03-08T12:43:48.242Z,0.30
2019-03-08T12:44:48.450Z,0.30
2019-03-08T12:45:48.147Z,0.30
2019-03-08T12:46:48.203Z,0.30
2019-03-08T12:47:48.204Z,0.30
2019-03-08T12:48:50.197Z,0.30
2019-03-08T12:49:48.419Z,0.30
2019-03-08T12:50:48.164Z,0.20
2019-03-08T12:51:48.167Z,0.30
2019-03-08T12:52:48.172Z,0.20
2019-03-08T12:53:48.189Z,0.30
2019-03-08T12:54:48.179Z,0.30
2019-03-08T12:55:48.238Z,0.30
2019-03-08T12:56:48.186Z,0.20
2019-03-08T12:57:48.189Z,0.30
2019-03-08T12:58:48.292Z,0.20
2019-03-08T12:59:48.196Z,0.30
2019-03-08T13:00:48.251Z,0.20
2019-03-08T13:01:48.204Z,0.20
2019-03-08T13:02:48.457Z,0.30
2019-03-08T13:03:48.514Z,0.20
2019-03-08T13:04:48.312Z,0.30
2019-03-08T13:05:48.418Z,0.40
2019-03-08T13:06:48.520Z,0.30
2019-03-08T13:07:48.331Z,0.20
2019-03-08T13:08:48.228Z,0.40
2019-03-08T13:09:48.231Z,0.30
2019-03-08T13:10:48.484Z,0.40
2019-03-08T13:11:48.440Z,0.30
2019-03-08T13:12:48.241Z,0.30
2019-03-08T13:13:48.243Z,0.40
2019-03-08T13:14:48.247Z,0.30
2019-03-08T13:15:48.251Z,0.20
2019-03-08T13:16:48.256Z,0.20
2019-03-08T13:17:48.257Z,0.20
2019-03-08T13:18:48.312Z,0.50